Time;durP1;ratioP1;P1;durP2;ratioP2;P2;SDS_P1;SDS_P2;PMS_P1;PMS_P2;Temp;Humidity;BMP_temperature;BMP_pressure;BME280_temperature;BME280_humidity;BME280_pressure;Samples;Min_cycle;Max_cycle;Signal;HPM_P1;HPM_P2
2022/10/27 00:02:07;;;;;;;15.05;2.83;;;;;;;12.87;100.00;100250.94;5035823;28;20029;-73
2022/10/27 00:04:32;;;;;;;14.77;1.65;;;;;;;12.89;100.00;100247.91;5038654;28;20036;-72
2022/10/27 00:06:57;;;;;;;7.30;1.55;;;;;;;12.94;100.00;100247.88;5012043;28;20100;-73
2022/10/27 00:09:23;;;;;;;7.05;1.33;;;;;;;12.97;100.00;100255.53;5040316;28;20025;-73
2022/10/27 00:11:48;;;;;;;9.57;2.03;;;;;;;13.01;100.00;100253.88;5025460;28;20036;-72
2022/10/27 00:14:14;;;;;;;10.73;2.03;;;;;;;13.03;100.00;100248.91;5043225;28;20379;-73
2022/10/27 00:16:40;;;;;;;5.80;1.58;;;;;;;13.04;100.00;100249.72;5009629;28;20029;-73
2022/10/27 00:19:05;;;;;;;3.78;1.35;;;;;;;13.05;100.00;100241.22;5029644;28;20025;-73
2022/10/27 00:21:31;;;;;;;4.53;1.83;;;;;;;12.99;100.00;100253.31;5025806;28;20037;-72
2022/10/27 00:23:56;;;;;;;3.40;0.90;;;;;;;12.91;100.00;100251.19;5053298;28;20025;-73
2022/10/27 00:26:21;;;;;;;4.13;1.02;;;;;;;12.86;100.00;100259.47;5043983;28;20024;-72
2022/10/27 00:28:47;;;;;;;3.65;0.90;;;;;;;12.85;100.00;100258.66;5027039;28;20024;-73
2022/10/27 00:31:18;;;;;;;2.92;1.00;;;;;;;12.84;100.00;100262.50;5047039;28;20028;-73
2022/10/27 00:33:46;;;;;;;1.98;1.00;;;;;;;12.88;100.00;100268.25;5057086;28;20067;-73
2022/10/27 00:36:14;;;;;;;1.05;0.65;;;;;;;12.92;100.00;100263.78;5035478;28;20052;-73
2022/10/27 00:38:39;;;;;;;1.60;0.68;;;;;;;12.95;100.00;100257.72;5044064;28;20112;-73
2022/10/27 00:41:08;;;;;;;3.05;2.10;;;;;;;13.02;100.00;100250.00;5062288;28;20056;-73
2022/10/27 00:43:36;;;;;;;4.05;1.38;;;;;;;13.12;100.00;100246.34;5061398;28;20045;-72
2022/10/27 00:46:26;;;;;;;4.65;1.52;;;;;;;13.21;100.00;100243.81;5060197;28;20093;-73
2022/10/27 00:48:57;;;;;;;4.72;1.40;;;;;;;13.23;100.00;100241.63;5055897;28;20067;-72
2022/10/27 00:51:23;;;;;;;3.53;1.00;;;;;;;13.26;100.00;100243.78;5056059;28;20060;-71
2022/10/27 00:53:49;;;;;;;2.78;1.13;;;;;;;13.28;100.00;100233.31;5050931;28;20005;-73
2022/10/27 00:56:16;;;;;;;1.23;0.80;;;;;;;13.25;100.00;100233.91;5047005;28;20498;-72
2022/10/27 00:58:44;;;;;;;4.63;1.10;;;;;;;13.24;100.00;100240.47;5028050;28;20030;-72
2022/10/27 01:01:10;;;;;;;4.72;1.80;;;;;;;13.21;100.00;100230.09;5057316;28;20136;-72
2022/10/27 01:03:36;;;;;;;1.98;1.10;;;;;;;13.17;100.00;100210.63;5039495;28;20049;-71
2022/10/27 01:06:03;;;;;;;4.35;1.30;;;;;;;13.15;100.00;100212.03;5043428;28;20041;-73
2022/10/27 01:08:28;;;;;;;1.50;0.90;;;;;;;13.10;100.00;100221.94;5028856;28;20029;-73
2022/10/27 01:10:54;;;;;;;6.70;1.58;;;;;;;13.09;100.00;100214.81;5025370;28;20021;-73
2022/10/27 01:13:20;;;;;;;3.58;1.25;;;;;;;13.04;100.00;100217.59;5017054;28;20059;-73
2022/10/27 01:15:51;;;;;;;1.70;0.70;;;;;;;13.04;100.00;100212.13;5057110;23;20069;-72
2022/10/27 01:18:29;;;;;;;2.13;0.85;;;;;;;13.02;100.00;100206.06;5063064;28;20083;-74
2022/10/27 01:21:32;;;;;;;1.42;0.90;;;;;;;13.03;100.00;100198.69;5049545;28;20036;-73
2022/10/27 01:24:06;;;;;;;3.13;0.98;;;;;;;13.05;100.00;100197.28;5048160;28;20016;-72
2022/10/27 01:26:32;;;;;;;;;;;;;;;13.14;100.00;100204.88;5050109;28;20067;-72
2022/10/27 01:29:12;;;;;;;2.53;0.90;;;;;;;13.21;100.00;100199.88;5045929;28;19908;-73
2022/10/27 01:31:47;;;;;;;3.42;1.10;;;;;;;13.19;100.00;100188.38;5036448;28;20188;-72
2022/10/27 01:34:38;;;;;;;1.48;1.00;;;;;;;13.19;100.00;100193.88;5051833;28;20112;-72
2022/10/27 01:37:14;;;;;;;2.67;1.10;;;;;;;13.22;100.00;100196.84;5055727;28;20082;-73
2022/10/27 01:39:51;;;;;;;3.92;1.10;;;;;;;13.25;100.00;100196.25;5056408;28;20021;-73
2022/10/27 01:42:50;;;;;;;4.15;1.10;;;;;;;13.32;100.00;100201.44;5054899;28;20108;-73
2022/10/27 01:45:23;;;;;;;6.82;1.52;;;;;;;13.38;100.00;100200.28;5059006;28;20033;-73
2022/10/27 01:47:49;;;;;;;3.97;1.42;;;;;;;13.43;100.00;100207.66;5049297;28;20040;-72
2022/10/27 01:50:23;;;;;;;3.50;1.05;;;;;;;13.47;100.00;100207.91;5042451;28;20088;-73
2022/10/27 01:52:49;;;;;;;2.90;1.02;;;;;;;13.49;100.00;100202.94;5037583;28;20025;-71
2022/10/27 01:55:21;;;;;;;11.80;1.63;;;;;;;13.55;100.00;100204.50;5042200;28;20105;-72
2022/10/27 01:58:10;;;;;;;4.47;1.17;;;;;;;13.61;100.00;100197.88;5039870;28;20479;-73
2022/10/27 02:01:02;;;;;;;5.60;1.63;;;;;;;13.63;100.00;100200.31;5008579;28;20037;-73
2022/10/27 02:03:41;;;;;;;8.48;1.80;;;;;;;13.68;100.00;100192.84;5038297;28;20039;-72
2022/10/27 02:06:12;;;;;;;6.25;1.40;;;;;;;13.69;100.00;100177.16;5050035;28;20029;-72
2022/10/27 02:08:45;;;;;;;10.73;1.58;;;;;;;13.69;100.00;100177.97;5042335;28;20040;-72
2022/10/27 02:11:11;;;;;;;2.42;0.85;;;;;;;13.74;100.00;100180.66;5040435;28;20036;-72
2022/10/27 02:13:42;;;;;;;1.13;0.90;;;;;;;13.73;100.00;100173.53;5041952;28;20018;-73
2022/10/27 02:16:18;;;;;;;1.77;0.98;;;;;;;13.76;100.00;100161.94;5057002;28;20053;-72
2022/10/27 02:18:52;;;;;;;3.70;0.63;;;;;;;13.83;100.00;100149.78;5047899;28;20041;-73
2022/10/27 02:21:20;;;;;;;0.88;0.60;;;;;;;13.84;100.00;100173.41;5045544;28;20048;-73
2022/10/27 02:23:45;;;;;;;1.83;0.77;;;;;;;13.84;100.00;100173.41;5025197;28;20032;-70
2022/10/27 02:26:20;;;;;;;2.33;0.60;;;;;;;13.87;100.00;100172.81;5041977;28;20002;-72
2022/10/27 02:29:05;;;;;;;1.77;0.65;;;;;;;13.86;100.00;100158.25;5039670;28;20032;-73
2022/10/27 02:31:42;;;;;;;1.13;0.70;;;;;;;13.86;100.00;100172.00;5044335;28;20020;-73
2022/10/27 02:34:09;;;;;;;3.83;1.40;;;;;;;13.89;100.00;100167.84;5041743;28;20052;-73
2022/10/27 02:36:36;;;;;;;2.50;0.80;;;;;;;13.92;100.00;100161.78;5051511;28;20027;-72
2022/10/27 02:39:02;;;;;;;1.20;0.60;;;;;;;14.01;100.00;100154.50;5030175;28;20037;-72
2022/10/27 02:41:27;;;;;;;0.98;0.60;;;;;;;14.07;100.00;100153.31;5045851;28;20026;-72
2022/10/27 02:43:53;;;;;;;2.17;0.60;;;;;;;14.08;100.00;100134.88;5044142;28;20017;-73
2022/10/27 02:46:18;;;;;;;1.10;0.70;;;;;;;14.11;100.00;100135.09;5023670;28;20414;-72
2022/10/27 02:48:44;;;;;;;1.50;0.60;;;;;;;14.07;100.00;100138.75;5039846;28;20041;-72
2022/10/27 02:51:10;;;;;;;2.60;0.77;;;;;;;14.03;100.00;100138.53;5054374;28;20033;-73
2022/10/27 02:53:36;;;;;;;0.95;0.50;;;;;;;14.04;100.00;100148.41;5070124;28;20348;-72
2022/10/27 02:56:01;;;;;;;0.57;0.38;;;;;;;14.00;100.00;100155.59;5060866;28;20032;-71
2022/10/27 02:58:26;;;;;;;1.42;0.65;;;;;;;13.98;100.00;100157.84;5039233;28;20026;-71
2022/10/27 03:00:55;;;;;;;0.77;0.60;;;;;;;13.95;100.00;100147.44;5034793;28;20348;-73
2022/10/27 03:03:24;;;;;;;2.03;0.50;;;;;;;13.99;100.00;100142.97;5030901;28;20025;-73
2022/10/27 03:05:49;;;;;;;3.47;0.90;;;;;;;13.99;100.00;100131.16;5050844;28;20026;-73
2022/10/27 03:08:15;;;;;;;2.97;0.98;;;;;;;14.01;100.00;100124.25;5036843;28;20468;-72
2022/10/27 03:10:42;;;;;;;1.33;0.70;;;;;;;13.98;100.00;100116.59;5052884;28;20032;-71
2022/10/27 03:13:13;;;;;;;2.10;0.90;;;;;;;13.93;100.00;100100.16;5057202;28;20402;-73
2022/10/27 03:15:39;;;;;;;1.42;0.82;;;;;;;13.84;100.00;100094.50;5058100;28;20495;-72
2022/10/27 03:18:05;;;;;;;0.50;0.47;;;;;;;13.81;100.00;100094.28;5034787;28;20032;-73
2022/10/27 03:20:30;;;;;;;1.15;0.60;;;;;;;13.75;100.00;100083.34;5057876;28;20022;-74
2022/10/27 03:22:59;;;;;;;1.27;0.55;;;;;;;13.75;100.00;100080.63;5056005;28;20022;-74
2022/10/27 03:25:27;;;;;;;1.15;0.52;;;;;;;13.70;100.00;100069.72;5038883;28;20053;-73
2022/10/27 03:27:52;;;;;;;1.70;0.70;;;;;;;13.75;100.00;100063.31;5042984;28;20037;-73
2022/10/27 03:30:18;;;;;;;4.43;0.80;;;;;;;13.75;100.00;100066.88;5041027;28;20518;-73
2022/10/27 03:32:48;;;;;;;1.35;0.80;;;;;;;13.81;100.00;100075.06;5038579;28;20034;-73
2022/10/27 03:35:15;;;;;;;1.83;1.00;;;;;;;13.85;100.00;100073.38;5045033;28;20037;-75
2022/10/27 03:37:43;;;;;;;6.18;0.80;;;;;;;13.79;100.00;100061.63;5060943;28;20052;-73
2022/10/27 03:40:10;;;;;;;2.28;0.80;;;;;;;13.84;100.00;100075.28;5042342;28;20096;-75
2022/10/27 03:42:42;;;;;;;1.40;0.95;;;;;;;13.87;100.00;100062.88;5037916;28;20096;-73
2022/10/27 03:45:09;;;;;;;1.67;1.08;;;;;;;13.93;100.00;100062.50;5036718;28;20028;-72
2022/10/27 03:47:34;;;;;;;1.67;1.10;;;;;;;13.98;100.00;100072.63;5030956;28;20064;-72
2022/10/27 03:50:00;;;;;;;2.38;1.50;;;;;;;13.99;100.00;100065.16;5038722;28;20034;-73
2022/10/27 03:52:25;;;;;;;2.35;1.10;;;;;;;14.03;100.00;100067.06;5039730;28;20033;-73
2022/10/27 03:54:51;;;;;;;2.50;1.10;;;;;;;14.09;100.00;100057.59;5046290;28;20106;-73
2022/10/27 03:57:16;;;;;;;4.32;1.50;;;;;;;14.18;100.00;100056.91;5038349;28;20149;-73
2022/10/27 03:59:41;;;;;;;2.38;1.38;;;;;;;14.32;100.00;100052.28;5039859;28;20421;-72
2022/10/27 04:02:07;;;;;;;4.50;1.48;;;;;;;14.36;100.00;100047.81;5021629;28;20037;-75
2022/10/27 04:04:32;;;;;;;3.28;1.85;;;;;;;14.34;100.00;100047.31;5039649;23;20136;-73
2022/10/27 04:06:58;;;;;;;3.85;1.73;;;;;;;14.36;100.00;100047.03;5062148;28;20029;-72
2022/10/27 04:09:23;;;;;;;1.83;1.23;;;;;;;14.41;100.00;100042.25;5064319;28;20216;-73
2022/10/27 04:11:48;;;;;;;3.45;1.80;;;;;;;14.41;100.00;100039.50;5054720;28;20037;-73
2022/10/27 04:14:14;;;;;;;3.78;1.95;;;;;;;14.35;100.00;100035.19;5054709;28;20043;-74
2022/10/27 04:16:40;;;;;;;2.95;1.75;;;;;;;14.42;100.00;100046.63;5043519;28;20104;-73
2022/10/27 04:19:05;;;;;;;2.42;1.45;;;;;;;14.39;100.00;100036.22;5056292;28;20564;-73
2022/10/27 04:21:30;;;;;;;2.45;1.55;;;;;;;14.41;100.00;100042.25;5049669;28;20390;-74
2022/10/27 04:23:56;;;;;;;3.08;1.52;;;;;;;14.42;100.00;100040.31;5060470;28;20028;-74
2022/10/27 04:26:21;;;;;;;5.10;2.20;;;;;;;14.38;100.00;100034.56;5052589;28;20099;-74
2022/10/27 04:28:47;;;;;;;3.05;2.03;;;;;;;14.41;100.00;100042.25;5072312;28;20033;-73
2022/10/27 04:31:12;;;;;;;4.55;2.70;;;;;;;14.42;100.00;100035.59;5040844;28;20017;-74
2022/10/27 04:33:37;;;;;;;7.63;3.03;;;;;;;14.43;100.00;100042.75;5056046;28;20120;-74
2022/10/27 04:36:05;;;;;;;5.93;2.40;;;;;;;14.49;100.00;100051.75;5044660;28;20033;-73
2022/10/27 04:38:31;;;;;;;2.42;1.88;;;;;;;14.53;100.00;100051.94;5026629;28;20021;-73
2022/10/27 04:40:59;;;;;;;5.05;3.17;;;;;;;14.58;100.00;100043.59;5082102;28;20035;-73
2022/10/27 04:43:24;;;;;;;6.70;3.92;;;;;;;14.61;100.00;100051.25;5054612;28;20041;-74
2022/10/27 04:45:50;;;;;;;3.17;2.45;;;;;;;14.63;100.00;100046.28;5028132;28;20036;-74
2022/10/27 04:48:15;;;;;;;4.53;3.92;;;;;;;14.65;100.00;100060.56;5051148;28;20029;-73
2022/10/27 04:50:41;;;;;;;4.18;2.92;;;;;;;14.62;100.00;100047.44;5054360;28;20120;-73
2022/10/27 04:53:07;;;;;;;4.70;3.08;;;;;;;14.55;100.00;100044.22;5059734;28;20025;-74
2022/10/27 04:55:32;;;;;;;4.88;3.53;;;;;;;14.60;100.00;100046.88;5049813;28;20075;-72
2022/10/27 04:57:58;;;;;;;6.85;4.50;;;;;;;14.67;100.00;100041.81;5050966;28;20037;-73
2022/10/27 05:00:24;;;;;;;5.07;3.80;;;;;;;14.68;100.00;100037.94;5038939;28;20028;-73
2022/10/27 05:02:54;;;;;;;10.88;4.72;;;;;;;14.73;100.00;100035.09;5041576;28;20033;-73
2022/10/27 05:05:20;;;;;;;6.85;4.18;;;;;;;14.74;100.00;100039.50;5036516;28;20052;-74
2022/10/27 05:08:00;;;;;;;9.90;5.00;;;;;;;14.74;100.00;100027.66;5051690;28;20040;-73
2022/10/27 05:10:26;;;;;;;9.75;4.95;;;;;;;14.75;100.00;100027.38;5034822;28;20029;-73
2022/10/27 05:12:53;;;;;;;5.35;3.35;;;;;;;14.80;100.00;100018.19;5058275;28;20040;-73
2022/10/27 05:15:19;;;;;;;5.45;3.65;;;;;;;14.80;100.00;100013.50;5042020;28;20096;-73
2022/10/27 05:17:45;;;;;;;8.15;4.55;;;;;;;14.78;100.00;100015.75;5062334;28;20091;-73
2022/10/27 05:20:11;;;;;;;4.25;3.45;;;;;;;14.78;100.00;100014.94;5051485;28;20083;-73
2022/10/27 05:22:37;;;;;;;5.65;3.45;;;;;;;14.75;100.00;100012.81;5057504;28;20080;-73
2022/10/27 05:25:04;;;;;;;6.25;3.60;;;;;;;14.81;100.00;100017.88;5058196;28;20052;-73
2022/10/27 05:27:31;;;;;;;7.90;3.85;;;;;;;14.82;100.00;100002.19;5061434;28;20031;-72
2022/10/27 05:29:56;;;;;;;10.70;5.05;;;;;;;14.88;100.00;100013.91;5059695;28;20024;-73
2022/10/27 05:32:22;;;;;;;9.85;5.38;;;;;;;14.89;100.00;100010.03;5047635;28;20059;-75
2022/10/27 05:34:47;;;;;;;7.38;4.28;;;;;;;14.91;100.00;100007.78;5062659;28;20037;-75
2022/10/27 05:37:12;;;;;;;11.52;4.82;;;;;;;14.89;100.00;100004.53;5062718;28;20078;-75
2022/10/27 05:39:38;;;;;;;6.32;3.90;;;;;;;14.89;100.00;100004.53;5024336;28;20479;-76
2022/10/27 05:42:03;;;;;;;11.15;4.07;;;;;;;14.86;100.00;100008.72;5062693;28;20079;-75
2022/10/27 05:44:29;;;;;;;8.30;4.35;;;;;;;14.84;100.00;100003.50;5045000;28;20083;-75
2022/10/27 05:46:54;;;;;;;6.65;3.50;;;;;;;14.83;100.00;99998.31;5061760;28;20115;-74
2022/10/27 05:49:20;;;;;;;6.75;3.53;;;;;;;14.82;100.00;99997.50;5066374;28;20036;-73
2022/10/27 05:51:48;;;;;;;5.43;3.45;;;;;;;14.79;100.00;99992.63;5060956;28;20478;-75
2022/10/27 05:54:14;;;;;;;6.15;3.33;;;;;;;14.80;100.00;99974.16;5044122;28;20025;-72
2022/10/27 05:56:39;;;;;;;5.10;2.80;;;;;;;14.83;100.00;99968.88;5057701;28;20025;-73
2022/10/27 05:59:05;;;;;;;3.60;2.55;;;;;;;14.82;100.00;99956.22;5049632;28;20052;-72
2022/10/27 06:01:30;;;;;;;4.63;2.35;;;;;;;14.83;100.00;99957.03;5060176;28;20116;-73
2022/10/27 06:03:56;;;;;;;6.95;2.38;;;;;;;14.84;100.00;99937.44;5046656;28;20044;-72
2022/10/27 06:06:21;;;;;;;6.45;2.35;;;;;;;14.88;100.00;99931.31;5043959;28;20049;-72
2022/10/27 06:08:46;;;;;;;4.05;2.05;;;;;;;14.89;100.00;99913.69;5056313;28;20055;-75
2022/10/27 06:11:12;;;;;;;3.63;1.95;;;;;;;14.93;100.00;99909.22;5055933;28;20025;-75
2022/10/27 06:13:37;;;;;;;3.55;2.55;;;;;;;14.96;100.00;99916.84;5042292;28;20398;-76
2022/10/27 06:16:03;;;;;;;3.80;1.90;;;;;;;14.97;100.00;99910.22;5062044;28;20024;-73
2022/10/27 06:18:28;;;;;;;2.83;1.67;;;;;;;14.94;100.00;99913.59;5043072;28;20025;-75
2022/10/27 06:20:57;;;;;;;7.00;1.80;;;;;;;14.96;100.00;99906.66;5061121;28;20020;-76
2022/10/27 06:23:23;;;;;;;3.33;1.45;;;;;;;14.95;100.00;99904.19;5059323;28;20094;-75
2022/10/27 06:25:48;;;;;;;3.63;1.60;;;;;;;14.94;100.00;99913.59;5055361;28;20025;-75
2022/10/27 06:28:14;;;;;;;5.18;2.13;;;;;;;14.93;100.00;99934.78;5067043;28;20029;-75
2022/10/27 06:30:39;;;;;;;8.05;2.10;;;;;;;14.95;100.00;99948.25;5073044;28;20043;-74
2022/10/27 06:33:05;;;;;;;4.95;2.08;;;;;;;14.93;100.00;99951.31;5041295;28;20024;-74
2022/10/27 06:35:30;;;;;;;6.53;1.80;;;;;;;14.92;100.00;99943.34;5062562;28;20787;-74
2022/10/27 06:37:56;;;;;;;8.93;1.63;;;;;;;14.92;100.00;99946.13;5078869;28;20055;-73
2022/10/27 06:40:21;;;;;;;5.05;1.88;;;;;;;14.90;100.00;99946.41;5055191;28;20033;-74
2022/10/27 06:42:49;;;;;;;3.20;1.33;;;;;;;14.87;100.00;99940.72;5053432;28;20054;-74
2022/10/27 06:45:16;;;;;;;8.38;2.50;;;;;;;14.82;100.00;99933.38;5060494;28;20051;-74
2022/10/27 06:47:42;;;;;;;4.43;1.42;;;;;;;14.78;100.00;99922.16;5066508;28;20040;-74
2022/10/27 06:50:08;;;;;;;3.67;1.73;;;;;;;14.78;100.00;99926.88;5059503;28;20032;-74
2022/10/27 06:52:38;;;;;;;3.47;1.38;;;;;;;14.74;100.00;99928.59;5077726;28;20033;-74
2022/10/27 06:55:04;;;;;;;4.57;1.63;;;;;;;14.74;100.00;99921.13;5059316;28;20025;-74
2022/10/27 06:57:38;;;;;;;4.70;1.80;;;;;;;14.69;100.00;99904.75;5057907;28;20100;-74
2022/10/27 07:00:04;;;;;;;4.07;1.27;;;;;;;14.66;100.00;99902.63;5055443;28;20037;-74
2022/10/27 07:02:29;;;;;;;5.57;1.40;;;;;;;14.65;100.00;99917.47;5056079;28;20056;-74
2022/10/27 07:04:55;;;;;;;4.18;1.55;;;;;;;14.63;100.00;99909.53;5046039;28;20037;-73
2022/10/27 07:07:20;;;;;;;4.30;1.33;;;;;;;14.68;100.00;99919.63;5059563;28;20032;-76
2022/10/27 07:09:46;;;;;;;4.93;1.70;;;;;;;14.70;100.00;99911.88;5029284;28;20028;-74
2022/10/27 07:12:11;;;;;;;8.52;1.17;;;;;;;14.76;100.00;99926.34;5040764;28;20432;-76
2022/10/27 07:14:37;;;;;;;6.22;1.13;;;;;;;14.73;100.00;99919.50;5059311;28;20340;-74
2022/10/27 07:17:02;;;;;;;1.60;0.70;;;;;;;14.75;100.00;99933.78;5052651;28;20021;-76
2022/10/27 07:19:28;;;;;;;2.92;0.85;;;;;;;14.68;100.00;99919.63;5039023;28;20124;-76
2022/10/27 07:21:54;;;;;;;6.03;1.30;;;;;;;14.74;100.00;99943.16;5053560;28;20112;-76
2022/10/27 07:24:19;;;;;;;7.88;1.80;;;;;;;14.76;100.00;99940.94;5057290;28;20084;-75
2022/10/27 07:26:47;;;;;;;3.20;1.23;;;;;;;14.76;100.00;99929.09;5053256;28;20521;-79
2022/10/27 07:29:12;;;;;;;3.10;1.35;;;;;;;14.81;100.00;99937.25;5052321;28;20493;-72
2022/10/27 07:31:38;;;;;;;7.88;1.30;;;;;;;14.83;100.00;99935.84;5062134;28;20029;-76
2022/10/27 07:34:03;;;;;;;6.55;1.65;;;;;;;14.82;100.00;99944.38;5047002;28;20116;-74
2022/10/27 07:36:29;;;;;;;6.07;1.40;;;;;;;14.83;100.00;99955.09;5057852;28;20039;-73
2022/10/27 07:38:54;;;;;;;4.82;1.42;;;;;;;14.89;100.00;99961.28;5058747;28;20039;-74
2022/10/27 07:41:20;;;;;;;2.63;1.00;;;;;;;14.93;100.00;99964.28;5055456;28;20116;-74
2022/10/27 07:43:47;;;;;;;2.95;1.05;;;;;;;14.97;100.00;99962.53;5038417;28;20040;-72
2022/10/27 07:46:13;;;;;;;13.45;1.45;;;;;;;15.01;100.00;99963.56;5055571;28;20120;-72
2022/10/27 07:48:39;;;;;;;2.45;1.08;;;;;;;15.04;100.00;99978.63;5056596;28;20098;-73
2022/10/27 07:51:04;;;;;;;3.00;0.75;;;;;;;15.08;100.00;99974.94;5035424;28;20029;-72
2022/10/27 07:53:32;;;;;;;8.18;1.23;;;;;;;15.18;100.00;99976.69;5056236;28;20025;-73
2022/10/27 07:55:59;;;;;;;4.47;1.13;;;;;;;15.19;100.00;99975.56;5061347;28;20074;-74
2022/10/27 07:58:27;;;;;;;2.25;0.90;;;;;;;15.23;100.00;99987.59;5055645;28;20033;-71
2022/10/27 08:00:53;;;;;;;1.50;0.82;;;;;;;15.31;100.00;99988.81;5038546;28;20035;-72
2022/10/27 08:03:21;;;;;;;4.85;1.63;;;;;;;15.39;100.00;99984.50;5068598;28;20048;-72
2022/10/27 08:05:47;;;;;;;4.57;1.55;;;;;;;15.44;100.00;99982.47;5050556;28;20072;-74
2022/10/27 08:08:14;;;;;;;4.13;1.10;;;;;;;15.51;100.00;99985.59;5041372;28;20043;-75
2022/10/27 08:10:44;;;;;;;3.60;1.90;;;;;;;15.64;100.00;99986.69;5057995;28;20552;-75
2022/10/27 08:13:10;;;;;;;1.52;1.40;;;;;;;15.62;100.00;99982.63;5058754;28;20075;-76
2022/10/27 08:15:37;;;;;;;6.65;1.27;;;;;;;15.68;99.63;99997.91;5059237;28;20478;-75
2022/10/27 08:18:03;;;;;;;4.82;1.25;;;;;;;15.65;99.63;100002.13;5053851;28;20025;-74
2022/10/27 08:20:31;;;;;;;10.93;1.30;;;;;;;15.61;99.92;100006.63;5043281;28;20068;-74
2022/10/27 08:23:09;;;;;;;5.95;1.30;;;;;;;15.50;100.00;99997.75;5068178;28;20037;-76
2022/10/27 08:25:35;;;;;;;7.32;1.15;;;;;;;15.52;99.95;99998.28;5060630;28;20035;-74
2022/10/27 08:28:03;;;;;;;2.83;1.00;;;;;;;15.48;100.00;99988.97;5058926;28;20025;-76
2022/10/27 08:30:31;;;;;;;4.80;1.35;;;;;;;15.54;100.00;100007.03;5049607;28;20402;-75
2022/10/27 08:32:59;;;;;;;8.55;1.42;;;;;;;15.56;100.00;99994.88;5059963;28;20036;-72
2022/10/27 08:35:26;;;;;;;6.82;1.90;;;;;;;15.54;99.30;99997.97;5072752;28;20040;-73
2022/10/27 08:38:04;;;;;;;8.18;2.58;;;;;;;15.52;99.67;100001.03;5057452;28;20092;-73
2022/10/27 08:40:45;;;;;;;5.45;1.98;;;;;;;15.54;99.50;99998.75;5056775;28;20035;-73
2022/10/27 08:43:33;;;;;;;2.35;1.00;;;;;;;15.57;99.01;100004.78;5057739;28;20025;-75
2022/10/27 08:46:08;;;;;;;11.40;2.22;;;;;;;15.57;99.26;100019.38;5061711;28;20059;-74
2022/10/27 08:48:36;;;;;;;10.20;1.50;;;;;;;15.57;99.53;100007.56;5060847;28;20032;-74
2022/10/27 08:51:02;;;;;;;19.15;3.88;;;;;;;15.58;99.13;100003.66;5064249;28;20040;-74
2022/10/27 08:53:34;;;;;;;13.02;4.45;;;;;;;15.60;99.33;100006.94;5061502;28;20103;-74
2022/10/27 08:56:10;;;;;;;8.63;3.30;;;;;;;15.60;98.57;100012.44;5078153;28;20041;-74
2022/10/27 08:58:40;;;;;;;7.88;2.47;;;;;;;15.65;98.82;100020.59;5060124;28;20024;-75
2022/10/27 09:01:18;;;;;;;6.88;2.47;;;;;;;15.72;99.40;100015.47;5066525;28;20078;-75
2022/10/27 09:04:17;;;;;;;9.95;1.65;;;;;;;15.89;97.71;100025.88;5057563;28;20023;-73
2022/10/27 09:07:07;;;;;;;9.18;1.60;;;;;;;15.94;97.64;100024.94;5071216;28;20557;-75
2022/10/27 09:09:55;;;;;;;5.78;1.75;;;;;;;16.00;97.43;100031.94;5059707;28;20050;-74
2022/10/27 09:12:53;;;;;;;3.70;1.42;;;;;;;16.06;97.39;100025.16;5072336;28;20084;-74
2022/10/27 09:15:21;;;;;;;14.43;2.35;;;;;;;16.28;95.52;100038.19;5052626;28;20032;-75
2022/10/27 09:17:56;;;;;;;10.02;1.85;;;;;;;16.25;95.37;100015.91;5066603;28;20062;-73
2022/10/27 09:20:37;;;;;;;9.10;1.70;;;;;;;16.35;95.32;100029.44;5055207;28;20036;-74
2022/10/27 09:23:04;;;;;;;17.55;2.30;;;;;;;16.40;95.11;100037.59;5062810;28;20033;-73
2022/10/27 09:25:35;;;;;;;6.47;1.83;;;;;;;16.49;95.12;100038.47;5068126;28;20438;-73
2022/10/27 09:28:05;;;;;;;12.40;2.00;;;;;;;16.53;95.26;100036.72;5046956;28;20038;-73
2022/10/27 09:30:36;;;;;;;6.70;1.80;;;;;;;16.61;94.91;100034.31;5059033;28;20028;-74
2022/10/27 09:33:08;;;;;;;10.63;1.90;;;;;;;16.80;93.91;100043.19;5077492;28;20044;-74
2022/10/27 09:35:36;;;;;;;8.93;1.83;;;;;;;16.89;92.75;100052.38;5061642;28;20394;-73
2022/10/27 09:38:11;;;;;;;10.80;1.75;;;;;;;16.90;92.22;100034.66;5047697;28;20044;-74
2022/10/27 09:40:37;;;;;;;8.75;1.58;;;;;;;17.03;91.83;100035.69;5061481;28;20032;-73
2022/10/27 09:43:08;;;;;;;11.57;1.83;;;;;;;17.21;91.46;100033.78;5060809;28;20040;-75
2022/10/27 09:45:33;;;;;;;13.68;2.13;;;;;;;17.35;90.40;100043.94;5068839;28;20033;-74
2022/10/27 09:48:05;;;;;;;16.83;2.53;;;;;;;17.38;89.90;100041.31;5047404;28;20036;-74
2022/10/27 09:50:55;;;;;;;16.67;1.90;;;;;;;17.39;89.63;100033.84;5056947;28;20501;-74
2022/10/27 09:53:48;;;;;;;17.70;2.60;;;;;;;17.55;88.79;100028.66;5061846;28;20032;-74
2022/10/27 09:56:22;;;;;;;7.03;2.03;;;;;;;17.78;88.01;100044.00;5059629;28;20025;-73
2022/10/27 09:59:03;;;;;;;12.40;2.13;;;;;;;18.04;87.31;100039.66;5056682;28;20044;-75
2022/10/27 10:01:50;;;;;;;11.27;1.92;;;;;;;18.37;85.26;100047.41;5059332;28;20045;-76
2022/10/27 10:04:27;;;;;;;8.82;1.85;;;;;;;18.70;83.28;100038.56;5082772;28;20088;-76
2022/10/27 10:06:55;;;;;;;10.25;1.90;;;;;;;18.64;82.89;100038.72;5059665;28;20033;-76
2022/10/27 10:09:33;;;;;;;6.00;1.67;;;;;;;18.53;83.60;100039.41;5065869;28;20032;-75
2022/10/27 10:12:22;;;;;;;11.27;1.60;;;;;;;18.62;83.72;100043.81;5075281;28;20178;-75
2022/10/27 10:14:48;;;;;;;5.63;1.55;;;;;;;18.89;82.42;100039.00;5068110;28;20017;-74
2022/10/27 10:17:22;;;;;;;7.40;1.90;;;;;;;19.53;79.87;100048.34;5077637;28;20036;-75
2022/10/27 10:19:48;;;;;;;;;;;;;;;19.75;77.77;100049.19;5073851;28;20057;-73
2022/10/27 10:22:31;;;;;;;11.23;1.80;;;;;;;19.95;75.99;100053.16;5062018;28;19958;-75
2022/10/27 10:25:13;;;;;;;11.00;2.40;;;;;;;20.12;76.24;100057.72;5060582;28;20024;-74
2022/10/27 10:27:55;;;;;;;12.25;1.95;;;;;;;20.42;74.45;100054.84;5064588;28;20039;-75
2022/10/27 10:30:39;;;;;;;6.93;1.83;;;;;;;21.41;70.94;100045.53;5046871;28;20095;-74
2022/10/27 10:33:06;;;;;;;12.77;1.90;;;;;;;21.36;69.27;100062.47;5060769;28;20036;-74
2022/10/27 10:35:48;;;;;;;10.52;1.80;;;;;;;20.48;72.14;100064.59;5063081;28;20084;-71
2022/10/27 10:38:34;;;;;;;5.85;1.52;;;;;;;19.68;74.76;100058.84;5061326;28;20083;-70
2022/10/27 10:41:08;;;;;;;3.30;1.10;;;;;;;19.40;76.77;100061.28;5060501;28;20029;-73
2022/10/27 10:43:33;;;;;;;;;;;;;;;19.19;76.93;100072.31;5062788;28;20036;-73
2022/10/27 10:46:15;;;;;;;9.43;1.50;;;;;;;19.02;77.63;100056.56;5043880;28;19913;-74
2022/10/27 10:48:46;;;;;;;9.27;1.77;;;;;;;18.83;77.72;100082.66;5055004;28;20029;-72
2022/10/27 10:51:16;;;;;;;6.90;1.38;;;;;;;18.35;78.73;100066.31;5051713;28;20032;-73
2022/10/27 10:53:49;;;;;;;13.25;1.63;;;;;;;17.99;81.00;100075.75;5042951;28;20039;-72
2022/10/27 10:56:25;;;;;;;7.90;1.92;;;;;;;17.83;82.51;100076.22;5060122;28;20402;-73
2022/10/27 10:59:01;;;;;;;9.73;1.67;;;;;;;17.74;83.12;100075.38;5062567;28;20036;-71
2022/10/27 11:01:40;;;;;;;5.82;1.65;;;;;;;17.69;83.80;100073.59;5053543;28;20060;-73
2022/10/27 11:04:20;;;;;;;7.57;1.20;;;;;;;17.75;84.33;100077.81;5055424;28;20025;-72
2022/10/27 11:07:04;;;;;;;8.70;1.70;;;;;;;17.76;84.11;100078.66;5059667;28;20045;-72
2022/10/27 11:09:45;;;;;;;;;;;;;;;17.78;83.97;100098.47;5054406;28;20041;-73
2022/10/27 11:12:34;;;;;;;8.45;1.55;;;;;;;17.83;84.06;100089.22;5051472;28;19912;-72
2022/10/27 11:15:21;;;;;;;6.45;1.23;;;;;;;18.04;83.94;100089.44;5053982;28;20033;-72
2022/10/27 11:17:50;;;;;;;7.30;1.52;;;;;;;18.23;82.45;100087.16;5066656;28;20037;-72
2022/10/27 11:20:27;;;;;;;11.73;1.23;;;;;;;18.56;81.15;100088.59;5059238;28;20104;-72
2022/10/27 11:22:54;;;;;;;10.23;1.65;;;;;;;19.05;79.34;100102.22;5054109;28;20029;-72
2022/10/27 11:25:24;;;;;;;7.80;1.40;;;;;;;19.32;77.08;100085.13;5059469;28;21619;-73
2022/10/27 11:28:04;;;;;;;14.30;2.05;;;;;;;19.11;77.89;100098.09;5050344;28;20024;-71
2022/10/27 11:30:32;;;;;;;11.85;1.75;;;;;;;19.43;77.60;100093.09;5059670;28;20016;-72
2022/10/27 11:33:06;;;;;;;6.97;1.30;;;;;;;20.19;74.51;100089.34;5062786;28;20027;-73
2022/10/27 11:35:47;;;;;;;9.80;1.88;;;;;;;20.00;73.53;100095.34;5064479;28;20032;-72